Humidity-temperature Sensor

Selected Measurement Type: Air Temperature

 
Air Temperature [°C]     6 entries per hour
Showing data from 7/10/2020 (00:00:00 Z) to 7/3/2020 (00:01:00 Z)
Previous Next [ Day | 3-Days | 7-Days ]
First Last
Prev [ Day | 3-Days | 7-Days ] Next
First Last

Start Time:     :
End Time:     :     
Time (in GMT) :00 :50 :40 :30 :20 :10
Previous Next [ Day | 3-Days | 7-Days ]
First Last
Prev [ Day | 3-Days | 7-Days ] Next
First Last


123 => good data
MM => data is determined as missing
-- => data not received/configured
Back to Top Back to Top
7/10/2020 00:00 to 23:10 -- -- -- -- -- --
7/9/2020 23:00 to 22:10 -- -- -- -- -- --
7/9/2020 22:00 to 21:10 -- -- -- -- -- --
7/9/2020 21:00 to 20:10 -- -- -- -- -- --
7/9/2020 20:00 to 19:10 -- -- -- -- -- --
7/9/2020 19:00 to 18:10 -- -- -- -- -- --
7/9/2020 18:00 to 17:10 -- -- -- -- -- --
7/9/2020 17:00 to 16:10 -- -- -- -- -- --
7/9/2020 16:00 to 15:10 -- -- -- -- -- --
7/9/2020 15:00 to 14:10 -- -- -- -- -- --
7/9/2020 14:00 to 13:10 19.94 19.95 19.96 19.91 19.91 19.93
7/9/2020 13:00 to 12:10 19.91 19.88 19.90 19.80 19.78 19.94
7/9/2020 12:00 to 11:10 19.89 19.89 19.93 20.03 20.08 20.09
7/9/2020 11:00 to 10:10 19.96 19.79 19.73 19.88 19.82 19.79
7/9/2020 10:00 to 9:10 19.78 19.70 19.69 19.82 19.93 19.98
7/9/2020 09:00 to 8:10 19.92 19.88 20.13 20.04 19.98 19.98
7/9/2020 08:00 to 7:10 19.99 20.15 20.25 20.29 20.29 20.34
7/9/2020 07:00 to 6:10 20.23 20.18 20.23 20.24 20.24 20.29
7/9/2020 06:00 to 5:10 20.27 20.23 20.26 20.28 20.46 20.57
7/9/2020 05:00 to 4:10 -- -- -- -- -- --
7/9/2020 04:00 to 3:10 20.58 20.51 20.45 20.42 20.35 20.29
7/9/2020 03:00 to 2:10 20.29 20.24 20.21 20.21 20.08 20.11
7/9/2020 02:00 to 1:10 20.38 20.30 20.27 20.20 20.24 20.47
7/9/2020 01:00 to 0:10 20.51 20.53 20.49 20.41 20.39 20.39
7/9/2020 00:00 to 23:10 -- -- -- -- -- --
7/8/2020 23:00 to 22:10 20.36 20.65 20.71 20.81 20.76 20.78
7/8/2020 22:00 to 21:10 20.78 20.77 20.78 20.79 20.80 20.82
7/8/2020 21:00 to 20:10 -- -- -- -- -- --
7/8/2020 20:00 to 19:10 -- -- -- -- -- --
7/8/2020 19:00 to 18:10 20.65 20.64 20.60 20.57 20.52 20.48
7/8/2020 18:00 to 17:10 -- -- -- -- -- --
7/8/2020 17:00 to 16:10 20.53 20.54 20.51 20.50 20.46 20.44
7/8/2020 16:00 to 15:10 -- -- -- -- -- --
7/8/2020 15:00 to 14:10 -- -- -- -- -- --
7/8/2020 14:00 to 13:10 20.31 20.27 20.22 20.25 20.16 20.16
7/8/2020 13:00 to 12:10 -- -- -- -- -- --
7/8/2020 12:00 to 11:10 -- -- -- -- -- --
7/8/2020 11:00 to 10:10 -- -- -- -- -- --
7/8/2020 10:00 to 9:10 -- -- -- -- -- --
7/8/2020 09:00 to 8:10 20.17 20.13 20.12 20.08 19.96 19.91
7/8/2020 08:00 to 7:10 19.89 19.88 19.91 19.93 19.95 19.97
7/8/2020 07:00 to 6:10 20.00 20.03 20.05 20.09 20.12 20.15
7/8/2020 06:00 to 5:10 -- -- -- -- -- --
7/8/2020 05:00 to 4:10 20.22 20.24 20.27 20.33 20.37 20.42
7/8/2020 04:00 to 3:10 20.41 20.41 20.41 20.42 20.31 20.30
7/8/2020 03:00 to 2:10 -- -- -- -- -- --
7/8/2020 02:00 to 1:10 -- -- -- -- -- --
7/8/2020 01:00 to 0:10 -- -- -- -- -- --
7/8/2020 00:00 to 23:10 -- -- -- -- -- --
7/7/2020 23:00 to 22:10 20.89 20.94 21.00 20.95 20.88 20.87
7/7/2020 22:00 to 21:10 -- -- -- -- -- --
7/7/2020 21:00 to 20:10 -- -- -- -- -- --
7/7/2020 20:00 to 19:10 20.72 20.73 20.69 20.68 20.69 20.71
7/7/2020 19:00 to 18:10 -- -- -- -- -- --
7/7/2020 18:00 to 17:10 -- -- -- -- -- --
7/7/2020 17:00 to 16:10 20.47 20.23 20.38 20.70 20.70 20.66
7/7/2020 16:00 to 15:10 -- -- -- -- -- --
7/7/2020 15:00 to 14:10 -- -- -- -- -- --
7/7/2020 14:00 to 13:10 20.60 20.57 20.53 20.54 20.53 20.38
7/7/2020 13:00 to 12:10 20.37 20.20 20.18 20.17 20.11 20.34
7/7/2020 12:00 to 11:10 20.19 19.97 19.94 20.31 20.55 20.60
7/7/2020 11:00 to 10:10 20.52 20.47 20.40 20.36 20.38 20.40
7/7/2020 10:00 to 9:10 20.40 20.38 20.37 20.39 20.38 20.40
7/7/2020 09:00 to 8:10 20.42 20.45 20.48 20.49 20.49 20.47
7/7/2020 08:00 to 7:10 20.46 20.47 20.50 20.55 20.62 20.72
7/7/2020 07:00 to 6:10 20.83 20.74 20.45 20.18 20.27 20.41
7/7/2020 06:00 to 5:10 20.49 20.60 20.69 20.75 20.64 20.63
7/7/2020 05:00 to 4:10 20.71 20.83 20.81 20.77 20.66 20.69
7/7/2020 04:00 to 3:10 20.63 20.64 20.65 20.62 20.64 20.53
7/7/2020 03:00 to 2:10 20.47 20.44 20.44 20.46 20.48 20.49
7/7/2020 02:00 to 1:10 20.53 20.55 20.57 20.58 20.58 20.58
7/7/2020 01:00 to 0:10 20.60 20.61 20.63 20.65 20.73 20.83
7/7/2020 00:00 to 23:10 20.88 20.97 20.99 21.03 21.09 21.12
7/6/2020 23:00 to 22:10 21.14 21.14 21.16 21.14 21.12 21.09
7/6/2020 22:00 to 21:10 21.08 21.07 21.06 21.09 21.10 21.10
7/6/2020 21:00 to 20:10 21.09 21.08 21.07 21.08 21.05 21.02
7/6/2020 20:00 to 19:10 21.01 20.95 20.92 20.87 20.85 20.87
7/6/2020 19:00 to 18:10 20.90 20.89 20.88 20.89 20.90 20.92
7/6/2020 18:00 to 17:10 20.94 20.87 20.77 20.67 20.66 20.65
7/6/2020 17:00 to 16:10 20.63 20.61 20.59 20.58 20.54 20.54
7/6/2020 16:00 to 15:10 20.51 20.50 20.51 20.50 20.50 20.50
7/6/2020 15:00 to 14:10 20.49 20.49 20.51 20.49 20.52 20.52
7/6/2020 14:00 to 13:10 20.47 20.45 20.42 20.41 20.39 20.37
7/6/2020 13:00 to 12:10 20.34 20.31 20.25 20.23 20.20 20.19
7/6/2020 12:00 to 11:10 20.18 20.18 20.16 20.16 20.14 20.16
7/6/2020 11:00 to 10:10 20.17 20.17 20.19 20.22 20.25 20.26
7/6/2020 10:00 to 9:10 20.30 20.33 20.34 20.36 20.37 20.37
7/6/2020 09:00 to 8:10 20.35 20.36 20.35 20.36 20.37 20.37
7/6/2020 08:00 to 7:10 20.41 20.44 20.47 20.50 20.53 20.50
7/6/2020 07:00 to 6:10 20.50 20.53 20.58 20.61 20.64 20.66
7/6/2020 06:00 to 5:10 20.68 20.73 20.78 20.81 20.79 20.80
7/6/2020 05:00 to 4:10 20.86 20.84 20.73 20.81 20.86 20.83
7/6/2020 04:00 to 3:10 20.80 20.78 20.76 20.73 20.72 20.72
7/6/2020 03:00 to 2:10 20.72 20.71 20.69 20.73 20.75 20.77
7/6/2020 02:00 to 1:10 20.77 20.73 20.73 20.74 20.75 20.76
7/6/2020 01:00 to 0:10 20.78 20.79 20.79 20.82 20.88 20.96
7/6/2020 00:00 to 23:10 21.05 21.14 21.19 21.21 21.23 21.24
7/5/2020 23:00 to 22:10 21.24 21.23 21.24 21.23 21.18 21.14
7/5/2020 22:00 to 21:10 21.12 21.13 21.11 21.10 21.05 21.03
7/5/2020 21:00 to 20:10 21.01 20.98 20.96 20.95 20.95 20.93
7/5/2020 20:00 to 19:10 20.91 20.89 20.87 20.85 20.81 20.81
7/5/2020 19:00 to 18:10 20.81 20.83 20.80 20.77 20.73 20.71
7/5/2020 18:00 to 17:10 20.72 20.69 20.71 20.69 20.65 20.62
7/5/2020 17:00 to 16:10 20.60 20.61 20.56 20.52 20.49 20.45
7/5/2020 16:00 to 15:10 20.41 20.36 20.35 20.33 20.30 20.30
7/5/2020 15:00 to 14:10 20.27 20.23 20.20 20.22 20.22 20.20
7/5/2020 14:00 to 13:10 20.18 20.12 20.10 20.10 20.08 20.05
7/5/2020 13:00 to 12:10 19.99 19.95 19.90 19.87 19.87 19.87
7/5/2020 12:00 to 11:10 19.84 19.83 19.83 19.84 19.86 19.87
7/5/2020 11:00 to 10:10 19.85 19.87 19.89 19.88 19.90 19.90
7/5/2020 10:00 to 9:10 19.91 19.93 19.94 19.98 19.98 19.99
7/5/2020 09:00 to 8:10 20.01 20.02 20.03 19.99 19.96 19.94
7/5/2020 08:00 to 7:10 19.97 20.00 20.08 20.07 20.10 20.10
7/5/2020 07:00 to 6:10 20.10 20.10 20.09 20.05 20.07 20.08
7/5/2020 06:00 to 5:10 20.08 20.08 20.10 20.12 20.17 20.18
7/5/2020 05:00 to 4:10 20.19 20.22 20.26 20.27 20.25 20.27
7/5/2020 04:00 to 3:10 20.28 20.30 20.31 20.34 20.37 20.44
7/5/2020 03:00 to 2:10 20.48 20.49 20.46 20.38 20.40 20.40
7/5/2020 02:00 to 1:10 20.42 20.45 20.48 20.50 20.51 20.54
7/5/2020 01:00 to 0:10 20.53 20.50 20.48 20.51 20.56 20.61
7/5/2020 00:00 to 23:10 20.65 20.72 20.79 20.85 20.85 20.85
7/4/2020 23:00 to 22:10 20.83 20.79 20.77 20.78 20.82 20.83
7/4/2020 22:00 to 21:10 20.84 20.84 20.83 20.82 20.81 20.78
7/4/2020 21:00 to 20:10 20.78 20.77 20.78 20.79 20.76 20.76
7/4/2020 20:00 to 19:10 20.74 20.72 20.71 20.69 20.70 20.67
7/4/2020 19:00 to 18:10 20.66 20.66 20.65 20.66 20.66 20.68
7/4/2020 18:00 to 17:10 20.68 20.68 20.70 20.69 20.66 20.65
7/4/2020 17:00 to 16:10 20.63 20.61 20.60 20.60 20.58 20.58
7/4/2020 16:00 to 15:10 20.58 20.61 20.66 20.70 20.68 20.68
7/4/2020 15:00 to 14:10 20.69 20.67 20.72 20.76 20.80 20.82
7/4/2020 14:00 to 13:10 20.84 20.63 20.48 20.42 20.39 20.34
7/4/2020 13:00 to 12:10 20.31 20.28 20.28 20.26 20.23 20.18
7/4/2020 12:00 to 11:10 20.18 20.17 20.17 20.16 20.18 20.20
7/4/2020 11:00 to 10:10 20.18 20.14 20.19 20.16 20.13 20.11
7/4/2020 10:00 to 9:10 20.07 20.03 20.03 20.03 20.06 20.08
7/4/2020 09:00 to 8:10 20.08 20.07 20.10 20.11 20.11 20.12
7/4/2020 08:00 to 7:10 20.15 20.17 20.22 20.28 20.31 20.34
7/4/2020 07:00 to 6:10 20.36 20.37 20.40 20.41 20.40 20.37
7/4/2020 06:00 to 5:10 20.36 20.38 20.41 20.43 20.42 20.45
7/4/2020 05:00 to 4:10 20.47 20.50 20.50 20.50 20.49 20.53
7/4/2020 04:00 to 3:10 20.58 20.61 20.63 20.61 20.63 20.65
7/4/2020 03:00 to 2:10 20.69 20.69 20.67 20.67 20.67 20.69
7/4/2020 02:00 to 1:10 20.71 20.73 20.78 20.78 20.79 20.82
7/4/2020 01:00 to 0:10 20.84 20.87 20.91 20.95 21.04 21.11
7/4/2020 00:00 to 23:10 21.12 21.25 21.24 21.27 21.23 21.23
7/3/2020 23:00 to 22:10 21.19 21.16 21.15 21.12 21.12 21.13
7/3/2020 22:00 to 21:10 21.14 21.07 21.07 21.04 21.03 21.00
7/3/2020 21:00 to 20:10 21.03 21.02 21.02 21.03 21.00 20.93
7/3/2020 20:00 to 19:10 20.83 20.75 20.68 20.63 20.62 20.63
7/3/2020 19:00 to 18:10 20.59 20.73 21.11 21.07 21.07 21.10
7/3/2020 18:00 to 17:10 21.05 21.02 21.02 21.00 20.98 20.91
7/3/2020 17:00 to 16:10 20.90 20.85 20.84 20.72 20.63 20.57
7/3/2020 16:00 to 15:10 20.53 20.46 20.42 20.42 20.42 20.43
7/3/2020 15:00 to 14:10 20.48 20.52 20.60 20.58 20.60 20.62
7/3/2020 14:00 to 13:10 20.67 20.57 20.40 20.58 20.62 20.60
7/3/2020 13:00 to 12:10 20.55 20.44 20.26 20.23 20.21 20.21
7/3/2020 12:00 to 11:10 20.25 20.27 20.28 20.27 20.28 20.31
7/3/2020 11:00 to 10:10 20.32 20.30 20.28 20.23 20.22 20.22
7/3/2020 10:00 to 9:10 20.20 20.21 20.21 20.23 20.23 20.25
7/3/2020 09:00 to 8:10 20.26 20.27 20.27 20.30 20.31 20.32
7/3/2020 08:00 to 7:10 20.35 20.39 20.42 20.45 20.46 20.49
7/3/2020 07:00 to 6:10 20.52 20.52 20.53 20.54 20.55 20.57
7/3/2020 06:00 to 5:10 20.61 20.62 20.63 20.66 20.70 20.72
7/3/2020 05:00 to 4:10 20.71 20.70 20.71 20.74 20.73 20.74
7/3/2020 04:00 to 3:10 20.74 20.79 20.79 20.82 20.84 20.86
7/3/2020 03:00 to 2:10 20.91 20.95 20.94 20.95 20.98 21.01
7/3/2020 02:00 to 1:10 21.02 21.04 21.08 21.10 21.12 21.16
7/3/2020 01:00 to 0:10 21.17 21.20 21.25 21.18 21.23 21.33